| time (UTC) | temp F | wind direction | speed MPH | gust MPH | rain 1hr in | rain 24hr in | rain mn in | humidity % | barometer mb |
| 20260903133059 | 67 | 209 | 7.0 | 13.0 | 0.10 | 3.99 | 3.46 | 95 | 1017.5 |
| 20260903131552 | 67 | 202 | 5.0 | 11.0 | 0.09 | 3.98 | 3.45 | 94 | 1018.4 |
| 20260903130051 | 67 | 346 | 3.0 | 14.0 | 0.07 | 3.96 | 3.43 | 95 | 1018.2 |
| 20260903124604 | 67 | 186 | 1.0 | 5.0 | 0.02 | 3.91 | 3.38 | 95 | 1019.0 |
| 20260903123049 | 66 | 269 | 3.0 | 21.0 | 0.00 | 3.89 | 3.36 | 96 | 1020.0 |
| 20260903121547 | 66 | 278 | 3.0 | 10.0 | 0.00 | 3.89 | 3.36 | 96 | 1018.3 |
| 20260903120057 | 67 | 250 | 1.0 | 8.0 | 0.00 | 3.89 | 3.36 | 96 | 1017.8 |
| 20260903114546 | 66 | 234 | 3.0 | 8.0 | 0.00 | 3.89 | 3.36 | 96 | 1017.5 |
| 20260903113120 | 66 | 231 | 1.0 | 5.0 | 0.00 | 3.89 | 3.36 | 96 | 1017.7 |
| 20260903111545 | 66 | 256 | 2.0 | 8.0 | 0.00 | 3.89 | 3.36 | 96 | 1017.5 |
| 20260903110041 | 66 | 219 | 4.0 | 10.0 | 0.00 | 3.89 | 3.36 | 96 | 1017.1 |
| 20260903104554 | 66 | 215 | 4.0 | 10.0 | 0.00 | 3.89 | 3.36 | 96 | 1016.9 |
| 20260903103038 | 66 | 213 | 4.0 | 9.0 | 0.00 | 3.89 | 3.36 | 96 | 1016.8 |
| 20260903101536 | 66 | 225 | 5.0 | 11.0 | 0.01 | 3.89 | 3.36 | 96 | 1016.6 |
| 20260903100039 | 66 | 208 | 3.0 | 6.0 | 0.03 | 3.89 | 3.36 | 96 | 1016.5 |
| 20260903094546 | 66 | 252 | 1.0 | 4.0 | 0.17 | 3.89 | 3.36 | 96 | 1016.5 |
| 20260903093034 | 67 | 132 | 0.0 | 5.0 | 0.19 | 3.89 | 3.36 | 96 | 1016.6 |
| 20260903091544 | 67 | 178 | 2.0 | 4.0 | 0.19 | 3.88 | 3.35 | 96 | 1017.9 |
| 20260903090031 | 67 | 236 | 0.0 | 5.0 | 0.18 | 3.85 | 3.32 | 96 | 1018.4 |
| 20260903084528 | 67 | 229 | 0.0 | 2.0 | 0.12 | 3.72 | 3.19 | 96 | 1018.9 |
| 20260903083027 | 67 | 265 | 0.0 | 2.0 | 0.49 | 3.70 | 3.17 | 96 | 1018.5 |
| 20260903081527 | 67 | 146 | 2.0 | 7.0 | 0.60 | 3.69 | 3.16 | 96 | 1018.1 |
| 20260903080026 | 67 | 171 | 3.0 | 7.0 | 0.57 | 3.67 | 3.14 | 96 | 1018.5 |
| 20260903074523 | 68 | 141 | 2.0 | 4.0 | 0.50 | 3.59 | 3.06 | 96 | 1017.9 |
| 20260903073031 | 68 | 116 | 1.0 | 5.0 | 0.44 | 3.19 | 2.66 | 96 | 1018.5 |
| 20260903071527 | 68 | 342 | 3.0 | 9.0 | 0.92 | 3.09 | 2.56 | 96 | 1017.2 |
| 20260903070022 | 68 | 276 | 3.0 | 14.0 | 1.10 | 3.09 | 2.56 | 96 | 1017.8 |
| 20260903064518 | 68 | 164 | 4.0 | 6.0 | 1.60 | 3.09 | 2.56 | 95 | 1016.7 |
| 20260903063204 | 68 | 92 | 6.0 | 10.0 | 2.23 | 2.79 | 2.25 | 96 | 1018.5 |
| 20260903061515 | 68 | 98 | 0.0 | 10.0 | 1.62 | 2.17 | 1.64 | 95 | 1017.0 |
| 20260903060012 | 69 | 66 | 4.0 | 9.0 | 1.44 | 1.99 | 1.46 | 95 | 1017.1 |
| 20260903054509 | 69 | 26 | 2.0 | 12.0 | 0.88 | 1.42 | 0.89 | 95 | 1018.3 |
| 20260903053010 | 70 | 276 | 2.0 | 7.0 | 0.02 | 0.55 | 0.02 | 95 | 1017.8 |
| 20260903051504 | 70 | 68 | 2.0 | 4.0 | 0.02 | 0.55 | 0.02 | 94 | 1016.5 |
| 20260903050003 | 70 | 32 | 1.0 | 3.0 | 0.02 | 0.55 | 0.02 | 94 | 1016.4 |
| 20260903044501 | 70 | 39 | 1.0 | 2.0 | 0.01 | 0.54 | 0.01 | 93 | 1016.1 |
| 20260903043205 | 70 | 76 | 0.0 | 2.0 | 0.00 | 0.53 | 0.00 | 92 | 1016.4 |
| 20260903041600 | 71 | 5 | 0.0 | 3.0 | 0.00 | 0.53 | 0.00 | 92 | 1017.0 |
| 20260903040053 | 71 | 46 | 1.0 | 4.0 | 0.00 | 0.53 | 0.00 | 92 | 1016.5 |
| 20260903034553 | 72 | 11 | 2.0 | 9.0 | 0.00 | 0.53 | 0.53 | 91 | 1016.7 |
| 20260903033054 | 73 | 72 | 4.0 | 10.0 | 0.00 | 0.53 | 0.53 | 91 | 1017.0 |
| 20260903031557 | 73 | 82 | 3.0 | 6.0 | 0.00 | 0.53 | 0.53 | 92 | 1017.1 |
| 20260903030053 | 73 | 32 | 2.0 | 5.0 | 0.00 | 0.53 | 0.53 | 92 | 1017.6 |
| 20260903024551 | 73 | 237 | 0.0 | 1.0 | 0.00 | 0.53 | 0.53 | 92 | 1016.7 |
| 20260903023050 | 73 | 232 | 1.0 | 3.0 | 0.00 | 0.53 | 0.53 | 91 | 1016.1 |
| 20260903021550 | 74 | 238 | 1.0 | 4.0 | 0.00 | 0.53 | 0.53 | 92 | 1016.0 |
| 20260903020050 | 74 | 238 | 3.0 | 5.0 | 0.00 | 0.53 | 0.53 | 93 | 1015.7 |
| 20260903014552 | 73 | 261 | 1.0 | 3.0 | 0.00 | 0.53 | 0.53 | 93 | 1016.0 |
| 20260903013102 | 74 | 254 | 1.0 | 2.0 | 0.00 | 0.53 | 0.53 | 93 | 1015.8 |
| 20260903011548 | 75 | 250 | 0.0 | 2.0 | 0.00 | 0.53 | 0.53 | 91 | 1016.1 |
| 20260903010050 | 75 | 180 | 1.0 | 2.0 | 0.00 | 0.53 | 0.53 | 91 | 1015.9 |
| 20260903004547 | 75 | 166 | 1.0 | 3.0 | 0.00 | 0.53 | 0.53 | 90 | 1015.7 |
| 20260903003049 | 76 | 267 | 1.0 | 5.0 | 0.00 | 0.53 | 0.53 | 89 | 1015.7 |
| 20260903001546 | 76 | 211 | 1.0 | 5.0 | 0.00 | 0.53 | 0.53 | 89 | 1015.8 |
| 20260903000047 | 77 | 182 | 2.0 | 5.0 | 0.00 | 0.53 | 0.53 | 89 | 1016.1 |
| 20260902234605 | 77 | 185 | 2.0 | 4.0 | 0.00 | 0.53 | 0.53 | 89 | 1016.3 |
| 20260902234521 | 77 | 175 | 2.0 | 4.0 | 0.00 | 0.53 | 0.53 | 89 | 1016.3 |
| 20260902233045 | 78 | 263 | 0.0 | 2.0 | 0.00 | 0.53 | 0.53 | 87 | 1016.3 |
| 20260902231544 | 79 | 223 | 2.0 | 3.0 | 0.00 | 0.53 | 0.53 | 85 | 1015.7 |
| 20260902230043 | 80 | 208 | 2.0 | 4.0 | 0.00 | 0.53 | 0.53 | 84 | 1015.7 |
| 20260902224604 | 81 | 200 | 2.0 | 4.0 | 0.00 | 0.53 | 0.53 | 82 | 1015.8 |
| 20260902223040 | 81 | 178 | 2.0 | 5.0 | 0.00 | 0.53 | 0.53 | 81 | 1016.0 |
| 20260902221537 | 82 | 180 | 2.0 | 8.0 | 0.00 | 0.53 | 0.53 | 80 | 1016.3 |
| 20260902220005 | 82 | 207 | 1.0 | 8.0 | 0.00 | 0.53 | 0.53 | 80 | 1016.5 |
| 20260902214503 | 83 | 128 | 3.0 | 8.0 | 0.00 | 0.53 | 0.53 | 78 | 1016.3 |
| 20260902213118 | 83 | 175 | 3.0 | 8.0 | 0.00 | 0.53 | 0.53 | 80 | 1016.6 |
| 20260902211604 | 83 | 75 | 3.0 | 8.0 | 0.00 | 0.53 | 0.53 | 78 | 1016.7 |
| 20260902211500 | 83 | 153 | 4.0 | 8.0 | 0.00 | 0.53 | 0.53 | 78 | 1016.7 |
| 20260902210059 | 84 | 130 | 2.0 | 6.0 | 0.00 | 0.53 | 0.53 | 78 | 1016.6 |
| 20260902204555 | 83 | 159 | 1.0 | 5.0 | 0.00 | 0.53 | 0.53 | 77 | 1016.7 |
| 20260902203055 | 83 | 143 | 2.0 | 5.0 | 0.00 | 0.53 | 0.53 | 77 | 1016.8 |
| 20260902201603 | 82 | 190 | 1.0 | 6.0 | 0.00 | 0.53 | 0.53 | 78 | 1016.7 |
| 20260902200119 | 82 | 196 | 3.0 | 8.0 | 0.00 | 0.53 | 0.53 | 78 | 1016.9 |
| 20260902194548 | 82 | 208 | 2.0 | 7.0 | 0.00 | 0.53 | 0.53 | 79 | 1016.9 |
| 20260902193046 | 82 | 216 | 3.0 | 8.0 | 0.00 | 0.53 | 0.53 | 80 | 1017.1 |
| 20260902191542 | 81 | 236 | 3.0 | 7.0 | 0.00 | 0.53 | 0.53 | 81 | 1017.2 |
| 20260902190054 | 80 | 214 | 3.0 | 7.0 | 0.00 | 0.53 | 0.53 | 82 | 1017.3 |
| 20260902184536 | 79 | 214 | 3.0 | 8.0 | 0.00 | 0.53 | 0.53 | 81 | 1017.3 |
| 20260902183038 | 78 | 225 | 5.0 | 9.0 | 0.00 | 0.53 | 0.53 | 81 | 1017.4 |
| 20260902181534 | 77 | 250 | 3.0 | 10.0 | 0.00 | 0.53 | 0.53 | 86 | 1017.8 |
| 20260902180030 | 76 | 226 | 5.0 | 10.0 | 0.00 | 0.53 | 0.53 | 87 | 1018.2 |
| 20260902174525 | 75 | 252 | 5.0 | 9.0 | 0.00 | 0.53 | 0.53 | 87 | 1018.6 |
| 20260902173023 | 73 | 188 | 0.0 | 7.0 | 0.00 | 0.53 | 0.53 | 91 | 1018.6 |
| 20260902171522 | 71 | 178 | 2.0 | 5.0 | 0.00 | 0.53 | 0.53 | 94 | 1018.7 |
| 20260902170021 | 70 | 229 | 3.0 | 7.0 | 0.00 | 0.53 | 0.53 | 96 | 1019.1 |
| 20260902164517 | 69 | 225 | 2.0 | 5.0 | 0.00 | 0.53 | 0.53 | 96 | 1019.3 |
| 20260902163015 | 68 | 269 | 1.0 | 2.0 | 0.01 | 0.53 | 0.53 | 96 | 1019.6 |
| 20260902161514 | 68 | 212 | 1.0 | 3.0 | 0.02 | 0.53 | 0.53 | 96 | 1019.3 |
| 20260902160016 | 68 | 310 | 0.0 | 3.0 | 0.04 | 0.53 | 0.53 | 96 | 1020.0 |
| 20260902154516 | 68 | 325 | 1.0 | 2.0 | 0.06 | 0.53 | 0.53 | 95 | 1018.7 |
| 20260902153012 | 68 | 50 | 0.0 | 4.0 | 0.09 | 0.52 | 0.52 | 95 | 1019.1 |
| 20260902151512 | 68 | 202 | 0.0 | 2.0 | 0.20 | 0.51 | 0.51 | 94 | 1020.0 |
| 20260902150014 | 68 | 175 | 1.0 | 4.0 | 0.49 | 0.49 | 0.49 | 94 | 1019.7 |
| 20260902144511 | 69 | 195 | 3.0 | 12.0 | 0.47 | 0.47 | 0.47 | 92 | 1019.5 |
| 20260902143014 | 70 | 269 | 5.0 | 15.0 | 0.43 | 0.43 | 0.43 | 91 | 1019.6 |
| 20260902141511 | 72 | 256 | 4.0 | 14.0 | 0.27 | 0.27 | 0.27 | 92 | 1019.7 |
| 20260902140008 | 73 | 227 | 0.0 | 0.0 | 0.00 | 0.00 | 0.00 | 92 | 1018.5 |
| 20260902134505 | 73 | 227 | 0.0 | 2.0 | 0.00 | 0.00 | 0.00 | 92 | 1018.2 |